CHH2 weather

Hamilton Harbour Seaplane Base
Burlington, Ontario, Canada

Public forecast

Using degrees Celsius for public forecast. Weather courtesy of forecast.io.

METAR (pilot weather report)

Closest report is John C. Munro Hamilton International Airport, 8.4 nm (15.5 km) SSW. Retrieved 2019/05/19 22:24 UTC (0 seconds ago):

CYHM 192224Z 24017G30KT 10SM -SHRA BKN070 OVC110 25/15 A2971 RMK AC5AC3 CVCTV CLD EMBD PRESRR SLP064 DENSITY ALT 2400FT

TAF (pilot weather forecast)

Closest forecast is John C. Munro Hamilton International Airport, 8.4 nm (15.5 km) SSW. Retrieved 2019/05/19 18:45 UTC (4 hours ago):

TAF CYHM 191744Z 1918/2018 21020G30KT P6SM SCT050 BKN080 TEMPO 1918/1922 P6SM -SHRA FM192200 23020G30KT P6SM -SHRA BKN050 TEMPO 1922/2002 5SM -SHRA BR PROB30 1922/2002 VRB20G30KT 11/2SM +TSRA BR BKN050CB FM200200 23015G25KT P6SM BKN030 FM200400 21012G22KT P6SM BKN040 TEMPO 2004/2008 P6SM -SHRA PROB30 2006/2008 BKN007 BKN020 FM200800 25012G22KT P6SM BKN007 BKN020 FM201100 25020G35KT P6SM BKN020 BKN040 FM201500 25020G32KT P6SM BKN025 RMK NXT FCST BY 200000Z